Bronson, Iowa
Current Conditions -  °F | °C
As of 7:45 AM on Thursday 23 Oct 2014 (Local Time) from KSUX Reporting Station
Moderate Fog Moderate Fog  
Wind Chill: 47°   Ceiling: 200
Heat Index: 47°   Visibility: 0.25mi
Dew Point: 46°   Wind: 0mph
Humidity: 97%   Direction: NA
Pressure: 30.04"   Gusts: NA
Location:  42.41°N, 96.21°W
Report Text: KSUX 231245Z 00000KT 1/4SM R31/1800V2400FT FG VV002 08/08 A3004 RMK AO2 T00830078
Loading
Personal Weather Stations






























Interactive Weather Map
Tropical Storm Tracking
New forecast layout! Learn more

10-Day Weather Forecast

Advertisements
Track Severe Weather on mobile